sensor_id;sensor_type;location;lat;lon;timestamp;temperature;humidity
7000;DHT22;3540;53.242;10.408;2022-09-24T00:01:16;12.30;99.90
7000;DHT22;3540;53.242;10.408;2022-09-24T00:03:43;12.30;99.90
7000;DHT22;3540;53.242;10.408;2022-09-24T00:06:12;12.30;99.90
7000;DHT22;3540;53.242;10.408;2022-09-24T00:08:39;12.30;99.90
7000;DHT22;3540;53.242;10.408;2022-09-24T00:11:05;12.30;99.90
7000;DHT22;3540;53.242;10.408;2022-09-24T00:13:33;12.30;99.90
7000;DHT22;3540;53.242;10.408;2022-09-24T00:16:05;12.30;99.90
7000;DHT22;3540;53.242;10.408;2022-09-24T00:18:32;12.20;99.90
7000;DHT22;3540;53.242;10.408;2022-09-24T00:20:58;12.20;99.90
7000;DHT22;3540;53.242;10.408;2022-09-24T00:23:23;12.20;99.90
7000;DHT22;3540;53.242;10.408;2022-09-24T00:25:49;12.20;99.90
7000;DHT22;3540;53.242;10.408;2022-09-24T00:28:33;12.20;99.90
7000;DHT22;3540;53.242;10.408;2022-09-24T00:31:06;12.20;99.90
7000;DHT22;3540;53.242;10.408;2022-09-24T00:33:33;12.20;99.90
7000;DHT22;3540;53.242;10.408;2022-09-24T00:36:01;12.20;99.90
7000;DHT22;3540;53.242;10.408;2022-09-24T00:38:29;12.10;99.90
7000;DHT22;3540;53.242;10.408;2022-09-24T00:40:55;12.20;99.90
7000;DHT22;3540;53.242;10.408;2022-09-24T00:43:30;12.10;99.90
7000;DHT22;3540;53.242;10.408;2022-09-24T00:46:03;12.10;99.90
7000;DHT22;3540;53.242;10.408;2022-09-24T00:48:32;12.10;99.90
7000;DHT22;3540;53.242;10.408;2022-09-24T00:50:59;12.10;99.90
7000;DHT22;3540;53.242;10.408;2022-09-24T00:53:25;12.00;99.90
7000;DHT22;3540;53.242;10.408;2022-09-24T00:55:56;12.00;99.90
7000;DHT22;3540;53.242;10.408;2022-09-24T00:58:22;12.00;99.90
7000;DHT22;3540;53.242;10.408;2022-09-24T01:00:50;11.90;99.90
7000;DHT22;3540;53.242;10.408;2022-09-24T01:03:22;12.00;99.90
7000;DHT22;3540;53.242;10.408;2022-09-24T01:05:48;12.00;99.90
7000;DHT22;3540;53.242;10.408;2022-09-24T01:08:15;12.00;99.90
7000;DHT22;3540;53.242;10.408;2022-09-24T01:10:48;12.00;99.90
7000;DHT22;3540;53.242;10.408;2022-09-24T01:13:21;12.00;99.90
7000;DHT22;3540;53.242;10.408;2022-09-24T01:16:11;12.00;99.90
7000;DHT22;3540;53.242;10.408;2022-09-24T01:29:23;11.90;99.90
7000;DHT22;3540;53.242;10.408;2022-09-24T01:32:00;11.90;99.90
7000;DHT22;3540;53.242;10.408;2022-09-24T01:34:51;11.90;99.90
7000;DHT22;3540;53.242;10.408;2022-09-24T01:37:20;11.90;99.90
7000;DHT22;3540;53.242;10.408;2022-09-24T01:39:48;11.80;99.90
7000;DHT22;3540;53.242;10.408;2022-09-24T01:42:16;11.90;99.90
7000;DHT22;3540;53.242;10.408;2022-09-24T01:44:43;11.80;99.90
7000;DHT22;3540;53.242;10.408;2022-09-24T01:47:12;11.80;99.90
7000;DHT22;3540;53.242;10.408;2022-09-24T01:49:40;11.90;99.90
7000;DHT22;3540;53.242;10.408;2022-09-24T01:52:09;11.90;99.90
7000;DHT22;3540;53.242;10.408;2022-09-24T01:54:40;11.80;99.90
7000;DHT22;3540;53.242;10.408;2022-09-24T01:57:20;11.90;99.90
7000;DHT22;3540;53.242;10.408;2022-09-24T01:59:47;11.90;99.90
7000;DHT22;3540;53.242;10.408;2022-09-24T02:05:17;11.90;99.90
7000;DHT22;3540;53.242;10.408;2022-09-24T02:07:53;11.90;99.90
7000;DHT22;3540;53.242;10.408;2022-09-24T02:10:19;11.90;99.90
7000;DHT22;3540;53.242;10.408;2022-09-24T02:12:49;11.90;99.90
7000;DHT22;3540;53.242;10.408;2022-09-24T02:15:47;11.80;99.90
7000;DHT22;3540;53.242;10.408;2022-09-24T02:18:16;11.90;99.90
7000;DHT22;3540;53.242;10.408;2022-09-24T02:20:43;11.80;99.90
7000;DHT22;3540;53.242;10.408;2022-09-24T02:23:10;11.80;99.90
7000;DHT22;3540;53.242;10.408;2022-09-24T02:26:15;11.80;99.90
7000;DHT22;3540;53.242;10.408;2022-09-24T02:28:34;11.80;99.90
7000;DHT22;3540;53.242;10.408;2022-09-24T02:33:40;11.70;99.90
7000;DHT22;3540;53.242;10.408;2022-09-24T02:36:24;11.70;99.90
7000;DHT22;3540;53.242;10.408;2022-09-24T02:38:51;11.70;99.90
7000;DHT22;3540;53.242;10.408;2022-09-24T02:41:18;11.70;99.90
7000;DHT22;3540;53.242;10.408;2022-09-24T02:43:49;11.60;99.90
7000;DHT22;3540;53.242;10.408;2022-09-24T02:46:14;11.60;99.90
7000;DHT22;3540;53.242;10.408;2022-09-24T02:48:40;11.60;99.90
7000;DHT22;3540;53.242;10.408;2022-09-24T02:51:06;11.60;99.90
7000;DHT22;3540;53.242;10.408;2022-09-24T02:53:32;11.60;99.90
7000;DHT22;3540;53.242;10.408;2022-09-24T02:55:58;11.60;99.90
7000;DHT22;3540;53.242;10.408;2022-09-24T02:58:25;11.60;99.90
7000;DHT22;3540;53.242;10.408;2022-09-24T03:00:51;11.60;99.90
7000;DHT22;3540;53.242;10.408;2022-09-24T03:03:18;11.70;99.90
7000;DHT22;3540;53.242;10.408;2022-09-24T03:05:43;11.60;99.90
7000;DHT22;3540;53.242;10.408;2022-09-24T03:08:10;11.60;99.90
7000;DHT22;3540;53.242;10.408;2022-09-24T03:10:35;11.60;99.90
7000;DHT22;3540;53.242;10.408;2022-09-24T03:13:01;11.60;99.90
7000;DHT22;3540;53.242;10.408;2022-09-24T03:15:27;11.60;99.90
7000;DHT22;3540;53.242;10.408;2022-09-24T03:17:54;11.60;99.90
7000;DHT22;3540;53.242;10.408;2022-09-24T03:20:19;11.60;99.90
7000;DHT22;3540;53.242;10.408;2022-09-24T03:22:49;11.60;99.90
7000;DHT22;3540;53.242;10.408;2022-09-24T03:25:16;11.60;99.90
7000;DHT22;3540;53.242;10.408;2022-09-24T03:27:41;11.60;99.90
7000;DHT22;3540;53.242;10.408;2022-09-24T03:30:07;11.60;99.90
7000;DHT22;3540;53.242;10.408;2022-09-24T03:32:51;11.60;99.90
7000;DHT22;3540;53.242;10.408;2022-09-24T03:35:17;11.60;99.90
7000;DHT22;3540;53.242;10.408;2022-09-24T03:37:44;11.60;99.90
7000;DHT22;3540;53.242;10.408;2022-09-24T03:40:10;11.60;99.90
7000;DHT22;3540;53.242;10.408;2022-09-24T03:42:36;11.60;99.90
7000;DHT22;3540;53.242;10.408;2022-09-24T03:45:03;11.60;99.90
7000;DHT22;3540;53.242;10.408;2022-09-24T03:47:28;11.60;99.90
7000;DHT22;3540;53.242;10.408;2022-09-24T03:49:56;11.60;99.90
7000;DHT22;3540;53.242;10.408;2022-09-24T03:52:22;11.60;99.90
7000;DHT22;3540;53.242;10.408;2022-09-24T03:54:48;11.60;99.90
7000;DHT22;3540;53.242;10.408;2022-09-24T03:57:14;11.60;99.90
7000;DHT22;3540;53.242;10.408;2022-09-24T03:59:43;11.60;99.90
7000;DHT22;3540;53.242;10.408;2022-09-24T04:02:10;11.60;99.90
7000;DHT22;3540;53.242;10.408;2022-09-24T04:04:36;11.60;99.90
7000;DHT22;3540;53.242;10.408;2022-09-24T04:07:02;11.50;99.90
7000;DHT22;3540;53.242;10.408;2022-09-24T04:09:28;11.60;99.90
7000;DHT22;3540;53.242;10.408;2022-09-24T04:11:54;11.60;99.90
7000;DHT22;3540;53.242;10.408;2022-09-24T04:14:20;11.50;99.90
7000;DHT22;3540;53.242;10.408;2022-09-24T04:16:46;11.50;99.90
7000;DHT22;3540;53.242;10.408;2022-09-24T04:19:15;11.50;99.90
7000;DHT22;3540;53.242;10.408;2022-09-24T04:21:41;11.50;99.90
7000;DHT22;3540;53.242;10.408;2022-09-24T04:24:07;11.50;99.90
7000;DHT22;3540;53.242;10.408;2022-09-24T04:26:33;11.50;99.90
7000;DHT22;3540;53.242;10.408;2022-09-24T04:28:58;11.50;99.90
7000;DHT22;3540;53.242;10.408;2022-09-24T04:31:24;11.50;99.90
7000;DHT22;3540;53.242;10.408;2022-09-24T04:33:52;11.50;99.90
7000;DHT22;3540;53.242;10.408;2022-09-24T04:36:18;11.50;99.90
7000;DHT22;3540;53.242;10.408;2022-09-24T04:38:43;11.50;99.90
7000;DHT22;3540;53.242;10.408;2022-09-24T04:41:10;11.50;99.90
7000;DHT22;3540;53.242;10.408;2022-09-24T04:43:37;11.50;99.90
7000;DHT22;3540;53.242;10.408;2022-09-24T04:46:03;11.50;99.90
7000;DHT22;3540;53.242;10.408;2022-09-24T04:48:29;11.50;99.90
7000;DHT22;3540;53.242;10.408;2022-09-24T04:50:55;11.50;99.90
7000;DHT22;3540;53.242;10.408;2022-09-24T04:53:22;11.40;99.90
7000;DHT22;3540;53.242;10.408;2022-09-24T04:55:48;11.40;99.90
7000;DHT22;3540;53.242;10.408;2022-09-24T04:58:13;11.40;99.90
7000;DHT22;3540;53.242;10.408;2022-09-24T05:00:39;11.40;99.90
7000;DHT22;3540;53.242;10.408;2022-09-24T05:03:05;11.30;99.90
7000;DHT22;3540;53.242;10.408;2022-09-24T05:05:31;11.40;99.90
7000;DHT22;3540;53.242;10.408;2022-09-24T05:07:58;11.40;99.90
7000;DHT22;3540;53.242;10.408;2022-09-24T05:10:24;11.40;99.90
7000;DHT22;3540;53.242;10.408;2022-09-24T05:12:50;11.40;99.90
7000;DHT22;3540;53.242;10.408;2022-09-24T05:15:16;11.40;99.90
7000;DHT22;3540;53.242;10.408;2022-09-24T05:17:44;11.40;99.90
7000;DHT22;3540;53.242;10.408;2022-09-24T05:20:10;11.40;99.90
7000;DHT22;3540;53.242;10.408;2022-09-24T05:22:40;11.40;99.90
7000;DHT22;3540;53.242;10.408;2022-09-24T05:25:06;11.40;99.90
7000;DHT22;3540;53.242;10.408;2022-09-24T05:27:32;11.40;99.90
7000;DHT22;3540;53.242;10.408;2022-09-24T05:29:57;11.40;99.90
7000;DHT22;3540;53.242;10.408;2022-09-24T05:32:24;11.40;99.90
7000;DHT22;3540;53.242;10.408;2022-09-24T05:34:50;11.40;99.90
7000;DHT22;3540;53.242;10.408;2022-09-24T05:37:16;11.40;99.90
7000;DHT22;3540;53.242;10.408;2022-09-24T05:39:42;11.40;99.90
7000;DHT22;3540;53.242;10.408;2022-09-24T05:42:09;11.40;99.90
7000;DHT22;3540;53.242;10.408;2022-09-24T05:44:38;11.40;99.90
7000;DHT22;3540;53.242;10.408;2022-09-24T05:47:03;11.40;99.90
7000;DHT22;3540;53.242;10.408;2022-09-24T05:49:29;11.40;99.90
7000;DHT22;3540;53.242;10.408;2022-09-24T05:51:56;11.40;99.90
7000;DHT22;3540;53.242;10.408;2022-09-24T05:54:22;11.40;99.90
7000;DHT22;3540;53.242;10.408;2022-09-24T05:56:48;11.50;99.90
7000;DHT22;3540;53.242;10.408;2022-09-24T05:59:14;11.60;99.90
7000;DHT22;3540;53.242;10.408;2022-09-24T06:01:39;11.50;99.90
7000;DHT22;3540;53.242;10.408;2022-09-24T06:04:05;11.50;99.90
7000;DHT22;3540;53.242;10.408;2022-09-24T06:06:31;11.50;99.90
7000;DHT22;3540;53.242;10.408;2022-09-24T06:08:57;11.50;99.90
7000;DHT22;3540;53.242;10.408;2022-09-24T06:11:22;11.50;99.90
7000;DHT22;3540;53.242;10.408;2022-09-24T06:13:49;11.60;99.90
7000;DHT22;3540;53.242;10.408;2022-09-24T06:16:15;11.60;99.90
7000;DHT22;3540;53.242;10.408;2022-09-24T06:18:42;11.60;99.90
7000;DHT22;3540;53.242;10.408;2022-09-24T06:21:13;11.60;99.90
7000;DHT22;3540;53.242;10.408;2022-09-24T06:23:39;11.60;99.90
7000;DHT22;3540;53.242;10.408;2022-09-24T06:26:06;11.60;99.90
7000;DHT22;3540;53.242;10.408;2022-09-24T06:28:33;11.60;99.90
7000;DHT22;3540;53.242;10.408;2022-09-24T06:30:59;11.60;99.90
7000;DHT22;3540;53.242;10.408;2022-09-24T06:33:25;11.60;99.90
7000;DHT22;3540;53.242;10.408;2022-09-24T06:35:51;11.60;99.90
7000;DHT22;3540;53.242;10.408;2022-09-24T06:38:18;11.70;99.90
7000;DHT22;3540;53.242;10.408;2022-09-24T06:40:45;11.70;99.90
7000;DHT22;3540;53.242;10.408;2022-09-24T06:43:13;11.80;99.90
7000;DHT22;3540;53.242;10.408;2022-09-24T06:45:40;11.80;99.90
7000;DHT22;3540;53.242;10.408;2022-09-24T06:48:10;11.90;99.90
7000;DHT22;3540;53.242;10.408;2022-09-24T06:50:39;11.90;99.90
7000;DHT22;3540;53.242;10.408;2022-09-24T06:53:05;11.80;99.90
7000;DHT22;3540;53.242;10.408;2022-09-24T06:55:35;11.90;99.90
7000;DHT22;3540;53.242;10.408;2022-09-24T06:58:12;11.80;99.90
7000;DHT22;3540;53.242;10.408;2022-09-24T07:00:38;11.90;99.90
7000;DHT22;3540;53.242;10.408;2022-09-24T07:03:05;11.80;99.90
7000;DHT22;3540;53.242;10.408;2022-09-24T07:05:32;11.90;99.90
7000;DHT22;3540;53.242;10.408;2022-09-24T07:07:58;11.90;99.90
7000;DHT22;3540;53.242;10.408;2022-09-24T07:10:23;12.00;99.90
7000;DHT22;3540;53.242;10.408;2022-09-24T07:12:49;12.00;99.90
7000;DHT22;3540;53.242;10.408;2022-09-24T07:15:15;11.90;99.90
7000;DHT22;3540;53.242;10.408;2022-09-24T07:17:44;12.00;99.90
7000;DHT22;3540;53.242;10.408;2022-09-24T07:20:10;12.00;99.90
7000;DHT22;3540;53.242;10.408;2022-09-24T07:22:39;12.00;99.90
7000;DHT22;3540;53.242;10.408;2022-09-24T07:25:10;11.90;99.90
7000;DHT22;3540;53.242;10.408;2022-09-24T07:27:37;12.00;99.90
7000;DHT22;3540;53.242;10.408;2022-09-24T07:30:04;12.00;99.90
7000;DHT22;3540;53.242;10.408;2022-09-24T07:32:30;12.00;99.90
7000;DHT22;3540;53.242;10.408;2022-09-24T07:34:56;12.00;99.90
7000;DHT22;3540;53.242;10.408;2022-09-24T07:37:21;12.00;99.90
7000;DHT22;3540;53.242;10.408;2022-09-24T07:39:47;12.00;99.90
7000;DHT22;3540;53.242;10.408;2022-09-24T07:42:13;12.00;99.90
7000;DHT22;3540;53.242;10.408;2022-09-24T07:44:38;12.00;99.90
7000;DHT22;3540;53.242;10.408;2022-09-24T07:47:04;12.00;99.90
7000;DHT22;3540;53.242;10.408;2022-09-24T07:49:30;12.10;99.90
7000;DHT22;3540;53.242;10.408;2022-09-24T07:52:00;12.00;99.90
7000;DHT22;3540;53.242;10.408;2022-09-24T07:54:25;12.10;99.90
7000;DHT22;3540;53.242;10.408;2022-09-24T07:56:51;12.10;99.90
7000;DHT22;3540;53.242;10.408;2022-09-24T07:59:17;12.10;99.90
7000;DHT22;3540;53.242;10.408;2022-09-24T08:01:44;12.20;99.90
7000;DHT22;3540;53.242;10.408;2022-09-24T08:04:10;12.20;99.90
7000;DHT22;3540;53.242;10.408;2022-09-24T08:06:36;12.30;99.90
7000;DHT22;3540;53.242;10.408;2022-09-24T08:09:02;12.30;99.90
7000;DHT22;3540;53.242;10.408;2022-09-24T08:11:29;12.30;99.90
7000;DHT22;3540;53.242;10.408;2022-09-24T08:13:55;12.40;99.90
7000;DHT22;3540;53.242;10.408;2022-09-24T08:16:22;12.40;99.90
7000;DHT22;3540;53.242;10.408;2022-09-24T08:18:48;12.50;99.90
7000;DHT22;3540;53.242;10.408;2022-09-24T08:21:13;12.50;99.90
7000;DHT22;3540;53.242;10.408;2022-09-24T08:23:40;12.50;99.90
7000;DHT22;3540;53.242;10.408;2022-09-24T08:26:07;12.50;99.90
7000;DHT22;3540;53.242;10.408;2022-09-24T08:28:32;12.50;99.90
7000;DHT22;3540;53.242;10.408;2022-09-24T08:31:03;12.50;99.90
7000;DHT22;3540;53.242;10.408;2022-09-24T08:33:30;12.60;99.90
7000;DHT22;3540;53.242;10.408;2022-09-24T08:35:58;12.70;99.90
7000;DHT22;3540;53.242;10.408;2022-09-24T08:38:25;12.70;99.90
7000;DHT22;3540;53.242;10.408;2022-09-24T08:44:03;12.80;99.90
7000;DHT22;3540;53.242;10.408;2022-09-24T08:46:49;12.80;99.90
7000;DHT22;3540;53.242;10.408;2022-09-24T08:49:42;12.80;99.90
7000;DHT22;3540;53.242;10.408;2022-09-24T08:52:36;12.80;99.90
7000;DHT22;3540;53.242;10.408;2022-09-24T08:55:33;12.80;99.90
7000;DHT22;3540;53.242;10.408;2022-09-24T09:00:45;12.80;99.90
7000;DHT22;3540;53.242;10.408;2022-09-24T09:03:45;12.70;99.90
7000;DHT22;3540;53.242;10.408;2022-09-24T09:09:01;12.80;99.90
7000;DHT22;3540;53.242;10.408;2022-09-24T09:11:31;12.80;99.90
7000;DHT22;3540;53.242;10.408;2022-09-24T09:14:10;12.80;99.90
7000;DHT22;3540;53.242;10.408;2022-09-24T09:16:54;12.80;99.90
7000;DHT22;3540;53.242;10.408;2022-09-24T09:19:25;12.90;99.90
7000;DHT22;3540;53.242;10.408;2022-09-24T09:22:04;12.90;99.90
7000;DHT22;3540;53.242;10.408;2022-09-24T09:24:42;13.00;99.90
7000;DHT22;3540;53.242;10.408;2022-09-24T09:27:11;12.90;99.90
7000;DHT22;3540;53.242;10.408;2022-09-24T09:29:40;12.80;99.90
7000;DHT22;3540;53.242;10.408;2022-09-24T09:38:04;12.90;99.90
7000;DHT22;3540;53.242;10.408;2022-09-24T09:43:08;13.00;99.90
7000;DHT22;3540;53.242;10.408;2022-09-24T09:45:57;13.00;99.90
7000;DHT22;3540;53.242;10.408;2022-09-24T09:48:29;13.10;99.90
7000;DHT22;3540;53.242;10.408;2022-09-24T09:51:01;13.10;99.90
7000;DHT22;3540;53.242;10.408;2022-09-24T09:53:30;13.00;99.90
7000;DHT22;3540;53.242;10.408;2022-09-24T09:56:03;13.00;99.90
7000;DHT22;3540;53.242;10.408;2022-09-24T09:58:35;12.90;99.90
7000;DHT22;3540;53.242;10.408;2022-09-24T10:01:10;13.00;99.90
7000;DHT22;3540;53.242;10.408;2022-09-24T10:07:01;13.00;99.90
7000;DHT22;3540;53.242;10.408;2022-09-24T10:09:26;13.00;99.90
7000;DHT22;3540;53.242;10.408;2022-09-24T10:11:51;12.90;99.90
7000;DHT22;3540;53.242;10.408;2022-09-24T10:14:17;12.90;99.90
7000;DHT22;3540;53.242;10.408;2022-09-24T10:16:48;13.00;99.90
7000;DHT22;3540;53.242;10.408;2022-09-24T10:19:20;13.00;99.90
7000;DHT22;3540;53.242;10.408;2022-09-24T10:21:46;13.00;99.90
7000;DHT22;3540;53.242;10.408;2022-09-24T10:24:20;13.10;99.90
7000;DHT22;3540;53.242;10.408;2022-09-24T10:26:47;13.10;99.90
7000;DHT22;3540;53.242;10.408;2022-09-24T10:32:05;13.20;99.90
7000;DHT22;3540;53.242;10.408;2022-09-24T10:34:31;13.30;99.90
7000;DHT22;3540;53.242;10.408;2022-09-24T10:37:13;13.50;99.90
7000;DHT22;3540;53.242;10.408;2022-09-24T10:39:39;13.60;99.90
7000;DHT22;3540;53.242;10.408;2022-09-24T10:42:12;13.60;99.90
7000;DHT22;3540;53.242;10.408;2022-09-24T10:44:47;13.70;99.90
7000;DHT22;3540;53.242;10.408;2022-09-24T10:50:21;13.90;99.90
7000;DHT22;3540;53.242;10.408;2022-09-24T10:53:13;14.00;99.90
7000;DHT22;3540;53.242;10.408;2022-09-24T10:55:50;14.20;99.90
7000;DHT22;3540;53.242;10.408;2022-09-24T11:01:29;14.10;99.90
7000;DHT22;3540;53.242;10.408;2022-09-24T11:10:05;14.20;99.90
7000;DHT22;3540;53.242;10.408;2022-09-24T11:21:27;14.30;99.90
7000;DHT22;3540;53.242;10.408;2022-09-24T11:29:13;14.40;99.90
7000;DHT22;3540;53.242;10.408;2022-09-24T11:43:09;14.30;99.90
7000;DHT22;3540;53.242;10.408;2022-09-24T11:48:36;14.30;99.90
7000;DHT22;3540;53.242;10.408;2022-09-24T11:54:19;14.20;99.90
7000;DHT22;3540;53.242;10.408;2022-09-24T11:56:51;14.20;99.90
7000;DHT22;3540;53.242;10.408;2022-09-24T12:01:49;14.10;99.90
7000;DHT22;3540;53.242;10.408;2022-09-24T12:04:25;14.10;99.90
7000;DHT22;3540;53.242;10.408;2022-09-24T12:07:07;14.20;99.90
7000;DHT22;3540;53.242;10.408;2022-09-24T12:12:25;14.20;99.90
7000;DHT22;3540;53.242;10.408;2022-09-24T12:14:59;14.20;99.90
7000;DHT22;3540;53.242;10.408;2022-09-24T12:17:52;14.10;99.90
7000;DHT22;3540;53.242;10.408;2022-09-24T12:20:26;14.00;99.90
7000;DHT22;3540;53.242;10.408;2022-09-24T12:23:10;14.00;99.90
7000;DHT22;3540;53.242;10.408;2022-09-24T12:25:41;14.00;99.90
7000;DHT22;3540;53.242;10.408;2022-09-24T12:28:11;14.00;99.90
7000;DHT22;3540;53.242;10.408;2022-09-24T12:30:41;14.00;99.90
7000;DHT22;3540;53.242;10.408;2022-09-24T12:33:39;14.00;99.90
7000;DHT22;3540;53.242;10.408;2022-09-24T12:36:22;14.00;99.90
7000;DHT22;3540;53.242;10.408;2022-09-24T12:39:10;14.00;99.90
7000;DHT22;3540;53.242;10.408;2022-09-24T12:41:42;14.10;99.90
7000;DHT22;3540;53.242;10.408;2022-09-24T12:46:44;14.00;99.90
7000;DHT22;3540;53.242;10.408;2022-09-24T12:52:23;14.10;99.90
7000;DHT22;3540;53.242;10.408;2022-09-24T12:54:58;13.90;99.90
7000;DHT22;3540;53.242;10.408;2022-09-24T13:02:57;14.30;99.90
7000;DHT22;3540;53.242;10.408;2022-09-24T13:08:21;14.30;99.90
7000;DHT22;3540;53.242;10.408;2022-09-24T13:14:05;14.10;99.90
7000;DHT22;3540;53.242;10.408;2022-09-24T13:17:12;14.20;99.90
7000;DHT22;3540;53.242;10.408;2022-09-24T13:19:41;14.30;99.90
7000;DHT22;3540;53.242;10.408;2022-09-24T13:22:29;14.30;99.90
7000;DHT22;3540;53.242;10.408;2022-09-24T13:25:25;14.40;99.90
7000;DHT22;3540;53.242;10.408;2022-09-24T13:28:02;14.40;99.90
7000;DHT22;3540;53.242;10.408;2022-09-24T13:33:08;14.40;99.90
7000;DHT22;3540;53.242;10.408;2022-09-24T13:35:59;14.40;99.90
7000;DHT22;3540;53.242;10.408;2022-09-24T13:38:33;14.40;99.90
7000;DHT22;3540;53.242;10.408;2022-09-24T13:41:52;14.20;99.90
7000;DHT22;3540;53.242;10.408;2022-09-24T13:43:56;14.30;99.90
7000;DHT22;3540;53.242;10.408;2022-09-24T13:46:24;14.30;99.90
7000;DHT22;3540;53.242;10.408;2022-09-24T13:48:56;14.30;99.90
7000;DHT22;3540;53.242;10.408;2022-09-24T13:51:29;14.20;99.90
7000;DHT22;3540;53.242;10.408;2022-09-24T13:54:16;14.20;99.90
7000;DHT22;3540;53.242;10.408;2022-09-24T13:57:18;14.30;99.90
7000;DHT22;3540;53.242;10.408;2022-09-24T13:59:44;14.20;99.90
7000;DHT22;3540;53.242;10.408;2022-09-24T14:02:26;14.10;99.90
7000;DHT22;3540;53.242;10.408;2022-09-24T14:04:54;14.10;99.90
7000;DHT22;3540;53.242;10.408;2022-09-24T14:07:21;14.20;99.90
7000;DHT22;3540;53.242;10.408;2022-09-24T14:09:47;14.40;99.90
7000;DHT22;3540;53.242;10.408;2022-09-24T14:12:17;14.30;99.90
7000;DHT22;3540;53.242;10.408;2022-09-24T14:14:51;14.10;99.90
7000;DHT22;3540;53.242;10.408;2022-09-24T14:17:18;14.10;99.90
7000;DHT22;3540;53.242;10.408;2022-09-24T14:19:43;14.20;99.90
7000;DHT22;3540;53.242;10.408;2022-09-24T14:22:15;14.20;99.90
7000;DHT22;3540;53.242;10.408;2022-09-24T14:25:16;14.20;99.90
7000;DHT22;3540;53.242;10.408;2022-09-24T14:27:49;14.20;99.90
7000;DHT22;3540;53.242;10.408;2022-09-24T14:30:22;14.20;99.90
7000;DHT22;3540;53.242;10.408;2022-09-24T14:32:57;14.10;99.90
7000;DHT22;3540;53.242;10.408;2022-09-24T14:38:10;13.80;99.90
7000;DHT22;3540;53.242;10.408;2022-09-24T14:40:45;13.90;99.90
7000;DHT22;3540;53.242;10.408;2022-09-24T14:46:22;14.00;99.90
7000;DHT22;3540;53.242;10.408;2022-09-24T14:48:49;14.10;99.90
7000;DHT22;3540;53.242;10.408;2022-09-24T14:51:22;14.10;99.90
7000;DHT22;3540;53.242;10.408;2022-09-24T14:53:57;14.10;99.90
7000;DHT22;3540;53.242;10.408;2022-09-24T14:56:31;14.10;99.90
7000;DHT22;3540;53.242;10.408;2022-09-24T14:58:58;13.80;99.90
7000;DHT22;3540;53.242;10.408;2022-09-24T15:01:29;13.80;99.90
7000;DHT22;3540;53.242;10.408;2022-09-24T15:04:02;13.70;99.90
7000;DHT22;3540;53.242;10.408;2022-09-24T15:06:30;13.80;99.90
7000;DHT22;3540;53.242;10.408;2022-09-24T15:09:04;13.80;99.90
7000;DHT22;3540;53.242;10.408;2022-09-24T15:11:35;13.90;99.90
7000;DHT22;3540;53.242;10.408;2022-09-24T15:16:44;13.80;99.90
7000;DHT22;3540;53.242;10.408;2022-09-24T15:19:25;13.80;99.90
7000;DHT22;3540;53.242;10.408;2022-09-24T15:21:56;13.80;99.90
7000;DHT22;3540;53.242;10.408;2022-09-24T15:24:22;13.80;99.90
7000;DHT22;3540;53.242;10.408;2022-09-24T15:27:03;13.70;99.90
7000;DHT22;3540;53.242;10.408;2022-09-24T15:29:29;13.70;99.90
7000;DHT22;3540;53.242;10.408;2022-09-24T15:31:55;13.60;99.90
7000;DHT22;3540;53.242;10.408;2022-09-24T15:34:22;13.60;99.90
7000;DHT22;3540;53.242;10.408;2022-09-24T15:36:52;13.60;99.90
7000;DHT22;3540;53.242;10.408;2022-09-24T15:39:19;13.60;99.90
7000;DHT22;3540;53.242;10.408;2022-09-24T15:41:45;13.60;99.90
7000;DHT22;3540;53.242;10.408;2022-09-24T15:44:21;13.50;99.90
7000;DHT22;3540;53.242;10.408;2022-09-24T15:46:49;13.60;99.90
7000;DHT22;3540;53.242;10.408;2022-09-24T15:49:19;13.60;99.90
7000;DHT22;3540;53.242;10.408;2022-09-24T15:52:04;13.50;99.90
7000;DHT22;3540;53.242;10.408;2022-09-24T15:54:30;13.40;99.90
7000;DHT22;3540;53.242;10.408;2022-09-24T15:56:55;13.50;99.90
7000;DHT22;3540;53.242;10.408;2022-09-24T15:59:21;13.30;99.90
7000;DHT22;3540;53.242;10.408;2022-09-24T16:01:50;13.30;99.90
7000;DHT22;3540;53.242;10.408;2022-09-24T16:04:16;13.30;99.90
7000;DHT22;3540;53.242;10.408;2022-09-24T16:06:41;13.30;99.90
7000;DHT22;3540;53.242;10.408;2022-09-24T16:09:07;13.20;99.90
7000;DHT22;3540;53.242;10.408;2022-09-24T16:11:33;13.30;99.90
7000;DHT22;3540;53.242;10.408;2022-09-24T16:13:58;13.30;99.90
7000;DHT22;3540;53.242;10.408;2022-09-24T16:16:24;13.30;99.90
7000;DHT22;3540;53.242;10.408;2022-09-24T16:18:50;13.30;99.90
7000;DHT22;3540;53.242;10.408;2022-09-24T16:21:16;13.30;99.90
7000;DHT22;3540;53.242;10.408;2022-09-24T16:23:42;13.30;99.90
7000;DHT22;3540;53.242;10.408;2022-09-24T16:26:08;13.30;99.90
7000;DHT22;3540;53.242;10.408;2022-09-24T16:28:34;13.20;99.90
7000;DHT22;3540;53.242;10.408;2022-09-24T16:31:04;13.20;99.90
7000;DHT22;3540;53.242;10.408;2022-09-24T16:33:31;13.20;99.90
7000;DHT22;3540;53.242;10.408;2022-09-24T16:36:07;13.20;99.90
7000;DHT22;3540;53.242;10.408;2022-09-24T16:38:34;13.20;99.90
7000;DHT22;3540;53.242;10.408;2022-09-24T16:41:00;13.20;99.90
7000;DHT22;3540;53.242;10.408;2022-09-24T16:43:26;13.20;99.90
7000;DHT22;3540;53.242;10.408;2022-09-24T16:45:52;13.20;99.90
7000;DHT22;3540;53.242;10.408;2022-09-24T16:48:18;13.20;99.90
7000;DHT22;3540;53.242;10.408;2022-09-24T16:50:43;13.20;99.90
7000;DHT22;3540;53.242;10.408;2022-09-24T16:53:09;13.20;99.90
7000;DHT22;3540;53.242;10.408;2022-09-24T16:55:34;13.10;99.90
7000;DHT22;3540;53.242;10.408;2022-09-24T16:58:00;13.10;99.90
7000;DHT22;3540;53.242;10.408;2022-09-24T17:00:25;13.20;99.90
7000;DHT22;3540;53.242;10.408;2022-09-24T17:02:51;13.10;99.90
7000;DHT22;3540;53.242;10.408;2022-09-24T17:05:17;13.10;99.90
7000;DHT22;3540;53.242;10.408;2022-09-24T17:07:42;13.10;99.90
7000;DHT22;3540;53.242;10.408;2022-09-24T17:10:09;13.10;99.90
7000;DHT22;3540;53.242;10.408;2022-09-24T17:12:45;13.10;99.90
7000;DHT22;3540;53.242;10.408;2022-09-24T17:15:13;13.10;99.90
7000;DHT22;3540;53.242;10.408;2022-09-24T17:17:42;13.10;99.90
7000;DHT22;3540;53.242;10.408;2022-09-24T17:20:09;13.10;99.90
7000;DHT22;3540;53.242;10.408;2022-09-24T17:22:36;13.10;99.90
7000;DHT22;3540;53.242;10.408;2022-09-24T17:25:05;13.20;99.90
7000;DHT22;3540;53.242;10.408;2022-09-24T17:27:31;13.10;99.90
7000;DHT22;3540;53.242;10.408;2022-09-24T17:30:00;13.10;99.90
7000;DHT22;3540;53.242;10.408;2022-09-24T17:32:25;13.10;99.90
7000;DHT22;3540;53.242;10.408;2022-09-24T17:34:51;13.00;99.90
7000;DHT22;3540;53.242;10.408;2022-09-24T17:37:17;13.00;99.90
7000;DHT22;3540;53.242;10.408;2022-09-24T17:39:43;13.10;99.90
7000;DHT22;3540;53.242;10.408;2022-09-24T17:42:09;13.10;99.90
7000;DHT22;3540;53.242;10.408;2022-09-24T17:44:34;13.10;99.90
7000;DHT22;3540;53.242;10.408;2022-09-24T17:47:00;13.10;99.90
7000;DHT22;3540;53.242;10.408;2022-09-24T17:49:26;13.00;99.90
7000;DHT22;3540;53.242;10.408;2022-09-24T17:51:51;13.00;99.90
7000;DHT22;3540;53.242;10.408;2022-09-24T17:54:17;13.00;99.90
7000;DHT22;3540;53.242;10.408;2022-09-24T17:56:45;13.00;99.90
7000;DHT22;3540;53.242;10.408;2022-09-24T17:59:12;13.00;99.90